createdAt,value
2023-01-15T00:00:02.500Z,99.99
2023-01-15T00:01:03.206Z,99.99
2023-01-15T00:02:03.274Z,99.70
2023-01-15T00:03:03.311Z,98.16
2023-01-15T00:04:02.931Z,95.03
2023-01-15T00:05:03.069Z,95.54
2023-01-15T00:06:03.442Z,93.74
2023-01-15T00:07:03.168Z,93.13
2023-01-15T00:08:03.499Z,93.68
2023-01-15T00:09:03.149Z,93.89
2023-01-15T00:10:03.545Z,94.71
2023-01-15T00:11:03.038Z,95.53
2023-01-15T00:12:02.890Z,96.04
2023-01-15T00:13:02.624Z,93.89
2023-01-15T00:14:02.968Z,93.93
2023-01-15T00:15:02.633Z,93.93
2023-01-15T00:16:02.702Z,94.76
2023-01-15T00:17:03.648Z,95.47
2023-01-15T00:18:03.290Z,94.96
2023-01-15T00:19:03.301Z,94.24
2023-01-15T00:20:03.582Z,94.18
2023-01-15T00:21:03.320Z,95.42
2023-01-15T00:22:02.988Z,96.03
2023-01-15T00:23:03.352Z,96.14
2023-01-15T00:24:03.421Z,96.03
2023-01-15T00:25:02.867Z,95.42
2023-01-15T00:26:03.164Z,95.42
2023-01-15T00:27:03.541Z,95.46
2023-01-15T00:28:02.949Z,95.67
2023-01-15T00:29:03.304Z,95.67
2023-01-15T00:30:02.957Z,96.28
2023-01-15T00:31:03.362Z,96.59
2023-01-15T00:32:03.766Z,96.39
2023-01-15T00:33:03.246Z,96.43
2023-01-15T00:34:03.206Z,96.64
2023-01-15T00:35:03.552Z,97.05
2023-01-15T00:36:03.189Z,96.02
2023-01-15T00:37:02.607Z,96.53
2023-01-15T00:38:02.987Z,97.45
2023-01-15T00:39:02.743Z,98.18
2023-01-15T00:40:03.089Z,97.66
2023-01-15T00:41:02.688Z,96.94
2023-01-15T00:42:03.289Z,96.12
2023-01-15T00:43:03.686Z,96.64
2023-01-15T00:44:03.029Z,97.09
2023-01-15T00:45:03.663Z,97.50
2023-01-15T00:46:03.166Z,97.71
2023-01-15T00:47:03.027Z,97.91
2023-01-15T00:48:03.026Z,98.12
2023-01-15T00:49:02.678Z,97.71
2023-01-15T00:50:02.927Z,97.61
2023-01-15T00:51:02.539Z,97.91
2023-01-15T00:52:02.860Z,97.75
2023-01-15T00:53:03.134Z,98.16
2023-01-15T00:54:03.228Z,98.47
2023-01-15T00:55:02.890Z,97.75
2023-01-15T00:56:03.279Z,98.06
2023-01-15T00:57:02.918Z,98.16
2023-01-15T00:58:03.269Z,97.86
2023-01-15T00:59:02.940Z,97.86
2023-01-15T01:00:03.277Z,98.27
2023-01-15T01:01:03.077Z,98.47
2023-01-15T01:02:02.817Z,98.47
2023-01-15T01:03:02.525Z,98.58
2023-01-15T01:04:02.675Z,98.27
2023-01-15T01:05:02.899Z,98.02
2023-01-15T01:06:02.801Z,97.71
2023-01-15T01:07:03.136Z,98.12
2023-01-15T01:08:03.334Z,98.12
2023-01-15T01:09:03.705Z,97.91
2023-01-15T01:10:03.705Z,98.12
2023-01-15T01:11:03.270Z,97.03
2023-01-15T01:12:02.585Z,97.75
2023-01-15T01:13:02.816Z,97.75
2023-01-15T01:14:02.898Z,97.75
2023-01-15T01:15:02.539Z,97.96
2023-01-15T01:16:02.822Z,97.55
2023-01-15T01:17:03.068Z,97.65
2023-01-15T01:18:03.329Z,98.06
2023-01-15T01:19:02.997Z,97.75
2023-01-15T01:20:03.136Z,97.86
2023-01-15T01:21:03.546Z,96.83
2023-01-15T01:22:02.534Z,97.86
2023-01-15T01:23:02.904Z,97.55
2023-01-15T01:24:02.498Z,97.44
2023-01-15T01:25:02.705Z,97.65
2023-01-15T01:26:03.074Z,97.39
2023-01-15T01:27:03.198Z,96.88
2023-01-15T01:28:03.331Z,96.15
2023-01-15T01:29:02.958Z,96.67
2023-01-15T01:30:03.297Z,97.08
2023-01-15T01:31:03.699Z,97.80
2023-01-15T01:32:02.837Z,97.60
2023-01-15T01:33:03.157Z,96.97
2023-01-15T01:34:03.216Z,97.69
2023-01-15T01:35:02.645Z,98.06
2023-01-15T01:36:03.039Z,96.88
2023-01-15T01:37:02.435Z,97.49
2023-01-15T01:38:02.636Z,97.60
2023-01-15T01:39:02.143Z,97.39
2023-01-15T01:40:02.521Z,98.00
2023-01-15T01:41:02.144Z,97.55
2023-01-15T01:42:02.378Z,97.28
2023-01-15T01:43:02.772Z,97.39
2023-01-15T01:44:02.679Z,97.80
2023-01-15T01:45:02.391Z,97.80
2023-01-15T01:46:02.293Z,97.75
2023-01-15T01:47:02.303Z,97.18
2023-01-15T01:48:02.630Z,97.60
2023-01-15T01:49:02.962Z,96.56
2023-01-15T01:50:02.389Z,96.36
2023-01-15T01:51:02.661Z,96.05
2023-01-15T01:52:03.054Z,95.95
2023-01-15T01:53:02.689Z,96.25
2023-01-15T01:54:03.046Z,96.88
2023-01-15T01:55:02.703Z,96.56
2023-01-15T01:56:02.953Z,96.36
2023-01-15T01:57:03.422Z,96.36
2023-01-15T01:58:03.122Z,96.46
2023-01-15T01:59:03.421Z,96.56
2023-01-15T02:00:03.066Z,96.05
2023-01-15T02:01:03.718Z,95.89
2023-01-15T02:02:03.097Z,96.15
2023-01-15T02:03:03.129Z,96.09
2023-01-15T02:04:03.189Z,95.17
2023-01-15T02:05:02.579Z,95.78
2023-01-15T02:06:02.958Z,96.30
2023-01-15T02:07:02.208Z,95.99
2023-01-15T02:08:01.899Z,95.37
2023-01-15T02:09:02.184Z,95.17
2023-01-15T02:10:02.286Z,95.17
2023-01-15T02:11:01.906Z,95.37
2023-01-15T02:12:02.981Z,95.17
2023-01-15T02:13:02.601Z,95.78
2023-01-15T02:14:02.684Z,96.09
2023-01-15T02:15:02.983Z,95.78
2023-01-15T02:16:02.635Z,95.17
2023-01-15T02:17:02.553Z,95.06
2023-01-15T02:18:02.263Z,94.45
2023-01-15T02:19:02.969Z,94.80
2023-01-15T02:20:02.437Z,95.06
2023-01-15T02:21:02.804Z,94.59
2023-01-15T02:22:02.985Z,94.59
2023-01-15T02:23:02.483Z,94.28
2023-01-15T02:24:03.403Z,94.80
2023-01-15T02:25:02.718Z,94.80
2023-01-15T02:26:02.804Z,94.18
2023-01-15T02:27:03.303Z,93.98
2023-01-15T02:28:03.320Z,93.15
2023-01-15T02:29:02.677Z,93.25
2023-01-15T02:30:03.284Z,93.35
2023-01-15T02:31:02.703Z,93.46
2023-01-15T02:32:02.815Z,92.43
2023-01-15T02:33:02.249Z,93.05
2023-01-15T02:34:02.633Z,93.05
2023-01-15T02:35:02.199Z,93.98
2023-01-15T02:36:02.602Z,94.08
2023-01-15T02:37:03.006Z,94.28
2023-01-15T02:38:02.435Z,94.08
2023-01-15T02:39:02.644Z,94.49
2023-01-15T02:40:03.031Z,93.77
2023-01-15T02:41:02.991Z,94.28
2023-01-15T02:42:03.110Z,93.25
2023-01-15T02:43:02.546Z,92.84
2023-01-15T02:44:02.927Z,92.63
2023-01-15T02:45:02.808Z,93.25
2023-01-15T02:46:03.077Z,93.15
2023-01-15T02:47:03.184Z,93.56
2023-01-15T02:48:03.237Z,93.46
2023-01-15T02:49:03.140Z,93.56
2023-01-15T02:50:03.263Z,92.63
2023-01-15T02:51:02.576Z,93.15
2023-01-15T02:52:02.674Z,93.77
2023-01-15T02:53:02.022Z,93.77
2023-01-15T02:54:02.393Z,93.66
2023-01-15T02:55:02.701Z,93.56
2023-01-15T02:56:02.179Z,93.05
2023-01-15T02:57:03.264Z,92.12
2023-01-15T02:58:02.590Z,92.63
2023-01-15T02:59:02.880Z,92.94
2023-01-15T03:00:02.585Z,92.94
2023-01-15T03:01:03.000Z,92.84
2023-01-15T03:02:04.015Z,93.25
2023-01-15T03:03:03.446Z,92.84
2023-01-15T03:04:03.675Z,92.94
2023-01-15T03:05:03.223Z,92.43
2023-01-15T03:06:03.618Z,93.25
2023-01-15T03:07:02.701Z,93.25
2023-01-15T03:08:02.295Z,93.46
2023-01-15T03:09:02.455Z,93.56
2023-01-15T03:10:02.345Z,93.35
2023-01-15T03:11:02.422Z,93.35
2023-01-15T03:12:02.709Z,94.08
2023-01-15T03:13:03.222Z,93.87
2023-01-15T03:14:03.106Z,92.12
2023-01-15T03:15:02.793Z,92.33
2023-01-15T03:16:03.165Z,92.74
2023-01-15T03:17:03.298Z,92.02
2023-01-15T03:18:03.519Z,92.02
2023-01-15T03:19:03.231Z,92.33
2023-01-15T03:20:03.595Z,93.05
2023-01-15T03:21:03.266Z,93.15
2023-01-15T03:22:02.650Z,93.46
2023-01-15T03:23:02.930Z,93.25
2023-01-15T03:24:03.170Z,93.77
2023-01-15T03:25:03.210Z,93.66
2023-01-15T03:26:02.577Z,93.05
2023-01-15T03:27:02.904Z,92.84
2023-01-15T03:28:03.486Z,93.15
2023-01-15T03:29:02.872Z,93.98
2023-01-15T03:30:03.200Z,94.08
2023-01-15T03:31:02.945Z,93.35
2023-01-15T03:32:03.904Z,93.15
2023-01-15T03:33:03.799Z,92.63
2023-01-15T03:34:03.438Z,92.43
2023-01-15T03:35:03.778Z,92.74
2023-01-15T03:36:03.353Z,92.74
2023-01-15T03:37:02.622Z,92.53
2023-01-15T03:38:02.935Z,91.91
2023-01-15T03:39:03.152Z,92.53
2023-01-15T03:40:03.050Z,92.12
2023-01-15T03:41:02.742Z,90.99
2023-01-15T03:42:03.104Z,91.81
2023-01-15T03:43:03.620Z,92.02
2023-01-15T03:44:03.009Z,91.50
2023-01-15T03:45:03.211Z,92.33
2023-01-15T03:46:03.737Z,91.40
2023-01-15T03:47:03.232Z,90.78
2023-01-15T03:48:03.470Z,91.30
2023-01-15T03:49:03.494Z,91.71
2023-01-15T03:50:03.185Z,91.19
2023-01-15T03:51:03.518Z,91.19
2023-01-15T03:52:02.753Z,91.09
2023-01-15T03:53:03.099Z,90.57
2023-01-15T03:54:03.078Z,90.47
2023-01-15T03:55:02.626Z,91.09
2023-01-15T03:56:02.759Z,90.99
2023-01-15T03:57:03.140Z,91.30
2023-01-15T03:58:03.488Z,91.71
2023-01-15T03:59:03.400Z,90.99
2023-01-15T04:00:03.013Z,91.09
2023-01-15T04:01:03.468Z,90.88
2023-01-15T04:02:02.628Z,89.95
2023-01-15T04:03:02.491Z,89.54
2023-01-15T04:04:03.122Z,89.65
2023-01-15T04:05:02.518Z,89.54
2023-01-15T04:06:03.324Z,89.03
2023-01-15T04:07:02.977Z,89.54
2023-01-15T04:08:03.059Z,89.85
2023-01-15T04:09:02.882Z,89.13
2023-01-15T04:10:02.536Z,88.82
2023-01-15T04:11:02.777Z,88.51
2023-01-15T04:12:02.070Z,88.51
2023-01-15T04:13:02.405Z,88.51
2023-01-15T04:14:02.420Z,88.41
2023-01-15T04:15:02.370Z,88.51
2023-01-15T04:16:02.351Z,88.20
2023-01-15T04:17:02.531Z,87.99
2023-01-15T04:18:02.746Z,87.69
2023-01-15T04:19:02.280Z,88.51
2023-01-15T04:20:02.563Z,87.99
2023-01-15T04:21:04.776Z,87.90
2023-01-15T04:22:02.039Z,86.97
2023-01-15T04:23:02.144Z,87.48
2023-01-15T04:24:01.819Z,87.90
2023-01-15T04:25:02.022Z,87.38
2023-01-15T04:26:02.113Z,87.59
2023-01-15T04:27:02.275Z,87.99
2023-01-15T04:28:02.683Z,88.41
2023-01-15T04:29:02.098Z,88.31
2023-01-15T04:30:02.077Z,88.31
2023-01-15T04:31:02.425Z,89.03
2023-01-15T04:32:02.783Z,88.72
2023-01-15T04:33:02.895Z,88.31
2023-01-15T04:34:02.752Z,88.10
2023-01-15T04:35:02.383Z,88.82
2023-01-15T04:36:02.677Z,88.31
2023-01-15T04:37:03.022Z,88.92
2023-01-15T04:38:02.775Z,88.31
2023-01-15T04:39:03.006Z,88.51
2023-01-15T04:40:02.662Z,88.51
2023-01-15T04:41:02.981Z,88.62
2023-01-15T04:42:02.364Z,89.13
2023-01-15T04:43:02.082Z,88.92
2023-01-15T04:44:02.326Z,89.54
2023-01-15T04:45:02.286Z,89.54
2023-01-15T04:46:02.034Z,89.34
2023-01-15T04:47:02.981Z,88.82
2023-01-15T04:48:02.864Z,88.72
2023-01-15T04:49:02.975Z,89.13
2023-01-15T04:50:02.839Z,89.44
2023-01-15T04:51:03.138Z,89.54
2023-01-15T04:52:02.003Z,89.65
2023-01-15T04:53:02.376Z,89.85
2023-01-15T04:54:02.089Z,89.65
2023-01-15T04:55:02.447Z,89.13
2023-01-15T04:56:02.352Z,89.13
2023-01-15T04:57:02.511Z,89.85
2023-01-15T04:58:02.235Z,89.13
2023-01-15T04:59:02.136Z,88.82
2023-01-15T05:00:02.580Z,89.23
2023-01-15T05:01:02.241Z,89.44
2023-01-15T05:02:06.437Z,89.54
2023-01-15T05:03:03.352Z,89.13
2023-01-15T05:04:03.641Z,89.65
2023-01-15T05:05:03.279Z,89.44
2023-01-15T05:06:03.098Z,89.44
2023-01-15T05:07:02.923Z,88.82
2023-01-15T05:08:02.760Z,89.03
2023-01-15T05:09:02.510Z,89.34
2023-01-15T05:10:02.916Z,89.75
2023-01-15T05:11:02.444Z,88.82
2023-01-15T05:12:03.601Z,88.31
2023-01-15T05:13:03.308Z,88.62
2023-01-15T05:14:03.222Z,89.54
2023-01-15T05:15:03.762Z,89.44
2023-01-15T05:16:03.267Z,87.69
2023-01-15T05:17:03.744Z,88.62
2023-01-15T05:18:03.201Z,88.62
2023-01-15T05:19:03.488Z,88.72
2023-01-15T05:20:03.230Z,88.41
2023-01-15T05:21:03.636Z,88.41
2023-01-15T05:22:03.677Z,87.69
2023-01-15T05:23:03.379Z,88.10
2023-01-15T05:24:03.763Z,87.90
2023-01-15T05:25:03.732Z,88.20
2023-01-15T05:26:03.189Z,87.27
2023-01-15T05:27:02.888Z,87.27
2023-01-15T05:28:02.298Z,87.07
2023-01-15T05:29:02.218Z,87.38
2023-01-15T05:30:02.608Z,87.90
2023-01-15T05:31:02.868Z,87.17
2023-01-15T05:32:02.519Z,87.59
2023-01-15T05:33:02.844Z,86.35
2023-01-15T05:34:02.448Z,86.87
2023-01-15T05:35:03.129Z,86.24
2023-01-15T05:36:02.723Z,86.76
2023-01-15T05:37:02.958Z,87.27
2023-01-15T05:38:02.646Z,86.45
2023-01-15T05:39:02.878Z,85.73
2023-01-15T05:40:02.692Z,86.76
2023-01-15T05:41:03.000Z,86.15
2023-01-15T05:42:03.509Z,85.94
2023-01-15T05:43:02.931Z,85.73
2023-01-15T05:44:03.235Z,84.91
2023-01-15T05:45:03.112Z,84.70
2023-01-15T05:46:03.981Z,84.80
2023-01-15T05:47:03.063Z,85.22
2023-01-15T05:48:03.037Z,84.70
2023-01-15T05:49:02.645Z,84.49
2023-01-15T05:50:03.031Z,84.91
2023-01-15T05:51:02.451Z,84.80
2023-01-15T05:52:03.456Z,84.70
2023-01-15T05:53:02.874Z,84.19
2023-01-15T05:54:03.290Z,84.59
2023-01-15T05:55:03.110Z,84.39
2023-01-15T05:56:03.108Z,84.70
2023-01-15T05:57:03.031Z,84.29
2023-01-15T05:58:02.493Z,83.87
2023-01-15T05:59:02.791Z,83.98
2023-01-15T06:00:02.993Z,83.67
2023-01-15T06:01:02.790Z,83.56
2023-01-15T06:02:02.521Z,84.39
2023-01-15T06:03:02.921Z,84.39
2023-01-15T06:04:03.114Z,84.39
2023-01-15T06:05:02.837Z,83.98
2023-01-15T06:06:03.046Z,83.77
2023-01-15T06:07:03.297Z,83.87
2023-01-15T06:08:02.663Z,83.98
2023-01-15T06:09:03.269Z,84.91
2023-01-15T06:10:03.210Z,84.59
2023-01-15T06:11:02.731Z,84.91
2023-01-15T06:12:03.135Z,85.22
2023-01-15T06:13:03.416Z,85.31
2023-01-15T06:14:03.285Z,85.94
2023-01-15T06:15:03.671Z,85.11
2023-01-15T06:16:03.821Z,85.52
2023-01-15T06:17:02.263Z,86.04
2023-01-15T06:18:02.515Z,86.04
2023-01-15T06:19:02.324Z,85.73
2023-01-15T06:20:02.583Z,86.04
2023-01-15T06:21:02.874Z,85.94
2023-01-15T06:22:02.973Z,85.57
2023-01-15T06:23:02.897Z,85.67
2023-01-15T06:24:03.178Z,86.18
2023-01-15T06:25:03.538Z,86.39
2023-01-15T06:26:03.065Z,86.70
2023-01-15T06:27:02.540Z,86.80
2023-01-15T06:28:02.693Z,86.70
2023-01-15T06:29:02.630Z,86.29
2023-01-15T06:30:03.296Z,86.29
2023-01-15T06:31:02.718Z,86.29
2023-01-15T06:32:02.766Z,86.39
2023-01-15T06:33:03.171Z,87.01
2023-01-15T06:34:03.281Z,86.60
2023-01-15T06:35:02.630Z,87.42
2023-01-15T06:36:03.084Z,87.21
2023-01-15T06:37:02.731Z,87.52
2023-01-15T06:38:03.254Z,87.32
2023-01-15T06:39:05.334Z,87.52
2023-01-15T06:40:03.124Z,87.73
2023-01-15T06:41:02.745Z,87.93
2023-01-15T06:42:03.126Z,88.24
2023-01-15T06:43:03.493Z,88.04
2023-01-15T06:44:03.192Z,88.56
2023-01-15T06:45:03.228Z,88.45
2023-01-15T06:46:03.099Z,88.14
2023-01-15T06:47:03.266Z,88.76
2023-01-15T06:48:03.328Z,88.86
2023-01-15T06:49:03.009Z,88.96
2023-01-15T06:50:03.617Z,88.90
2023-01-15T06:51:03.189Z,89.22
2023-01-15T06:53:03.164Z,89.73
2023-01-15T06:54:03.555Z,90.25
2023-01-15T06:55:03.107Z,90.35
2023-01-15T06:56:03.549Z,90.55
2023-01-15T06:57:02.499Z,90.86
2023-01-15T06:58:02.333Z,91.01
2023-01-15T06:59:02.651Z,91.32
2023-01-15T07:00:02.335Z,91.63
2023-01-15T07:01:02.894Z,91.73
2023-01-15T07:02:02.917Z,91.52
2023-01-15T07:03:03.289Z,91.42
2023-01-15T07:04:02.953Z,91.52
2023-01-15T07:05:03.343Z,91.63
2023-01-15T07:06:02.847Z,91.94
2023-01-15T07:07:03.549Z,91.73
2023-01-15T07:08:03.274Z,91.73
2023-01-15T07:09:03.660Z,92.04
2023-01-15T07:10:03.071Z,92.04
2023-01-15T07:11:03.441Z,91.83
2023-01-15T07:12:02.977Z,91.32
2023-01-15T07:13:02.579Z,91.83
2023-01-15T07:14:02.834Z,92.19
2023-01-15T07:15:02.581Z,92.08
2023-01-15T07:16:02.979Z,92.19
2023-01-15T07:17:03.183Z,92.40
2023-01-15T07:18:03.546Z,92.40
2023-01-15T07:19:03.455Z,92.29
2023-01-15T07:20:03.175Z,91.77
2023-01-15T07:21:03.621Z,92.19
2023-01-15T07:22:02.680Z,92.08
2023-01-15T07:23:02.542Z,92.08
2023-01-15T07:24:02.979Z,91.77
2023-01-15T07:25:02.472Z,91.77
2023-01-15T07:26:02.826Z,91.98
2023-01-15T07:27:02.673Z,92.19
2023-01-15T07:28:02.371Z,91.88
2023-01-15T07:29:02.856Z,91.67
2023-01-15T07:30:02.588Z,91.67
2023-01-15T07:31:02.984Z,91.26
2023-01-15T07:32:03.322Z,91.16
2023-01-15T07:33:02.930Z,91.16
2023-01-15T07:34:03.377Z,91.36
2023-01-15T07:35:03.095Z,91.36
2023-01-15T07:36:03.116Z,90.95
2023-01-15T07:37:02.608Z,91.05
2023-01-15T07:38:02.363Z,91.05
2023-01-15T07:39:02.830Z,91.26
2023-01-15T07:40:02.276Z,90.64
2023-01-15T07:41:02.678Z,90.84
2023-01-15T07:42:03.135Z,91.16
2023-01-15T07:43:03.327Z,91.01
2023-01-15T07:44:03.388Z,90.02
2023-01-15T07:45:02.891Z,90.19
2023-01-15T07:46:02.777Z,90.19
2023-01-15T07:47:02.257Z,89.98
2023-01-15T07:48:02.267Z,89.36
2023-01-15T07:49:01.938Z,90.08
2023-01-15T07:50:02.276Z,89.77
2023-01-15T07:51:01.971Z,89.77
2023-01-15T07:52:02.381Z,89.15
2023-01-15T07:53:02.154Z,89.25
2023-01-15T07:54:02.599Z,89.36
2023-01-15T07:55:02.541Z,89.46
2023-01-15T07:56:02.618Z,89.36
2023-01-15T07:57:02.784Z,89.56
2023-01-15T07:58:02.572Z,89.56
2023-01-15T07:59:02.965Z,89.77
2023-01-15T08:00:02.547Z,89.67
2023-01-15T08:01:02.825Z,89.36
2023-01-15T08:02:03.073Z,88.95
2023-01-15T08:03:03.015Z,88.43
2023-01-15T08:04:02.869Z,88.84
2023-01-15T08:05:02.685Z,89.05
2023-01-15T08:06:03.069Z,89.36
2023-01-15T08:07:03.513Z,88.84
2023-01-15T08:08:03.317Z,88.22
2023-01-15T08:09:03.075Z,88.64
2023-01-15T08:10:03.216Z,88.12
2023-01-15T08:11:03.142Z,88.32
2023-01-15T08:12:03.229Z,88.12
2023-01-15T08:13:03.550Z,88.22
2023-01-15T08:14:03.263Z,87.81
2023-01-15T08:15:03.531Z,87.60
2023-01-15T08:16:03.597Z,87.81
2023-01-15T08:17:03.631Z,87.92
2023-01-15T08:18:03.423Z,88.12
2023-01-15T08:19:03.786Z,88.43
2023-01-15T08:20:03.614Z,88.32
2023-01-15T08:21:03.677Z,87.92
2023-01-15T08:22:03.202Z,87.60
2023-01-15T08:23:03.313Z,87.92
2023-01-15T08:24:02.866Z,87.60
2023-01-15T08:25:02.912Z,87.92
2023-01-15T08:26:03.355Z,88.12
2023-01-15T08:27:03.279Z,87.71
2023-01-15T08:28:03.334Z,87.60
2023-01-15T08:29:03.048Z,88.12
2023-01-15T08:30:03.071Z,88.02
2023-01-15T08:31:03.197Z,88.02
2023-01-15T08:32:03.454Z,88.22
2023-01-15T08:33:02.998Z,87.81
2023-01-15T08:34:03.523Z,87.81
2023-01-15T08:35:03.423Z,88.74
2023-01-15T08:36:03.080Z,88.84
2023-01-15T08:37:03.432Z,89.46
2023-01-15T08:38:03.253Z,89.67
2023-01-15T08:39:03.036Z,89.25
2023-01-15T08:40:03.512Z,88.84
2023-01-15T08:41:03.032Z,89.15
2023-01-15T08:42:03.492Z,89.05
2023-01-15T08:43:03.293Z,88.95
2023-01-15T08:44:03.092Z,89.36
2023-01-15T08:45:03.624Z,89.56
2023-01-15T08:46:03.203Z,89.05
2023-01-15T08:47:03.060Z,89.36
2023-01-15T08:48:02.839Z,89.36
2023-01-15T08:49:02.701Z,88.74
2023-01-15T08:50:02.760Z,89.05
2023-01-15T08:51:03.352Z,88.84
2023-01-15T08:52:03.606Z,88.84
2023-01-15T08:53:03.158Z,89.15
2023-01-15T08:54:03.192Z,88.53
2023-01-15T08:55:03.266Z,88.64
2023-01-15T08:56:03.309Z,88.84
2023-01-15T08:57:02.942Z,89.25
2023-01-15T08:58:02.404Z,89.05
2023-01-15T08:59:02.789Z,89.77
2023-01-15T09:00:02.972Z,89.56
2023-01-15T09:01:02.687Z,89.46
2023-01-15T09:02:03.158Z,89.46
2023-01-15T09:03:03.076Z,89.87
2023-01-15T09:04:03.145Z,90.19
2023-01-15T09:05:02.537Z,90.19
2023-01-15T09:06:03.058Z,89.98
2023-01-15T09:07:02.726Z,89.98
2023-01-15T09:08:02.203Z,90.19
2023-01-15T09:09:02.660Z,90.39
2023-01-15T09:10:02.236Z,90.80
2023-01-15T09:11:01.992Z,90.91
2023-01-15T09:12:03.032Z,90.97
2023-01-15T09:13:02.651Z,90.97
2023-01-15T09:14:02.391Z,90.86
2023-01-15T09:15:03.526Z,90.14
2023-01-15T09:16:02.837Z,90.14
2023-01-15T09:17:03.325Z,89.73
2023-01-15T09:18:02.860Z,89.22
2023-01-15T09:19:02.635Z,89.11
2023-01-15T09:20:03.455Z,89.52
2023-01-15T09:21:02.825Z,89.52
2023-01-15T09:22:02.285Z,89.22
2023-01-15T09:23:02.776Z,89.52
2023-01-15T09:24:02.598Z,90.04
2023-01-15T09:25:02.385Z,89.52
2023-01-15T09:26:02.753Z,89.62
2023-01-15T09:27:03.029Z,89.32
2023-01-15T09:28:02.724Z,88.80
2023-01-15T09:29:02.875Z,89.11
2023-01-15T09:30:02.969Z,89.11
2023-01-15T09:31:02.718Z,88.90
2023-01-15T09:32:02.146Z,88.84
2023-01-15T09:33:02.602Z,89.32
2023-01-15T09:34:02.439Z,88.84
2023-01-15T09:35:02.678Z,88.80
2023-01-15T09:36:02.159Z,89.32
2023-01-15T09:37:02.680Z,88.80
2023-01-15T09:38:03.171Z,89.36
2023-01-15T09:39:02.737Z,88.90
2023-01-15T09:40:02.743Z,88.70
2023-01-15T09:41:02.757Z,89.62
2023-01-15T09:42:02.288Z,89.52
2023-01-15T09:43:02.762Z,89.01
2023-01-15T09:44:02.202Z,88.90
2023-01-15T09:45:02.691Z,88.90
2023-01-15T09:46:02.185Z,89.42
2023-01-15T09:47:02.403Z,89.11
2023-01-15T09:48:02.968Z,89.01
2023-01-15T09:49:02.877Z,88.49
2023-01-15T09:50:02.633Z,88.59
2023-01-15T09:51:02.920Z,88.39
2023-01-15T09:52:01.921Z,88.39
2023-01-15T09:53:01.715Z,89.01
2023-01-15T09:54:02.045Z,89.11
2023-01-15T09:55:02.099Z,88.39
2023-01-15T09:56:02.123Z,88.29
2023-01-15T09:57:01.992Z,87.87
2023-01-15T09:58:01.822Z,87.56
2023-01-15T09:59:01.759Z,87.98
2023-01-15T10:00:02.313Z,87.98
2023-01-15T10:01:01.908Z,87.77
2023-01-15T10:02:02.667Z,87.46
2023-01-15T10:03:02.186Z,87.98
2023-01-15T10:04:02.470Z,87.46
2023-01-15T10:05:04.754Z,87.77
2023-01-15T10:06:02.305Z,87.66
2023-01-15T10:07:02.656Z,87.56
2023-01-15T10:08:03.122Z,87.01
2023-01-15T10:09:02.508Z,87.42
2023-01-15T10:10:02.973Z,87.21
2023-01-15T10:11:03.136Z,87.11
2023-01-15T10:12:02.874Z,86.70
2023-01-15T10:13:03.190Z,87.01
2023-01-15T10:14:02.682Z,86.76
2023-01-15T10:15:02.930Z,85.22
2023-01-15T10:16:02.754Z,85.83
2023-01-15T10:17:03.092Z,85.94
2023-01-15T10:18:03.469Z,85.73
2023-01-15T10:19:03.304Z,85.31
2023-01-15T10:20:03.359Z,85.73
2023-01-15T10:21:03.390Z,86.15
2023-01-15T10:22:02.800Z,85.63
2023-01-15T10:23:02.921Z,85.63
2023-01-15T10:24:02.802Z,85.01
2023-01-15T10:25:02.853Z,85.73
2023-01-15T10:26:02.738Z,84.80
2023-01-15T10:27:02.437Z,84.19
2023-01-15T10:28:02.594Z,84.70
2023-01-15T10:29:02.580Z,84.49
2023-01-15T10:30:02.341Z,84.80
2023-01-15T10:31:02.710Z,84.39
2023-01-15T10:32:03.087Z,84.59
2023-01-15T10:33:03.522Z,84.70
2023-01-15T10:34:03.215Z,84.59
2023-01-15T10:35:02.882Z,85.01
2023-01-15T10:36:02.788Z,84.70
2023-01-15T10:37:03.123Z,84.08
2023-01-15T10:38:02.978Z,84.29
2023-01-15T10:39:02.844Z,84.59
2023-01-15T10:40:03.335Z,84.39
2023-01-15T10:41:03.025Z,82.54
2023-01-15T10:42:02.627Z,82.70
2023-01-15T10:43:02.518Z,83.01
2023-01-15T10:44:02.788Z,83.12
2023-01-15T10:45:02.666Z,83.53
2023-01-15T10:46:02.437Z,83.28
2023-01-15T10:47:02.418Z,83.28
2023-01-15T10:48:01.963Z,82.42
2023-01-15T10:49:02.225Z,81.49
2023-01-15T10:50:02.552Z,81.56
2023-01-15T10:51:02.028Z,80.84
2023-01-15T10:52:02.472Z,79.16
2023-01-15T10:53:02.568Z,78.85
2023-01-15T10:54:02.019Z,78.75
2023-01-15T10:55:02.105Z,79.02
2023-01-15T10:56:02.501Z,77.58
2023-01-15T10:57:02.946Z,78.78
2023-01-15T10:58:10.182Z,78.67
2023-01-15T10:59:02.851Z,77.55
2023-01-15T11:00:02.910Z,77.61
2023-01-15T11:01:02.638Z,77.81
2023-01-15T11:02:02.357Z,76.38
2023-01-15T11:03:02.185Z,76.89
2023-01-15T11:04:02.152Z,77.00
2023-01-15T11:05:01.776Z,77.06
2023-01-15T11:06:02.110Z,75.52
2023-01-15T11:07:02.762Z,75.62
2023-01-15T11:08:34.352Z,76.86
2023-01-15T11:09:11.762Z,75.90
2023-01-15T11:10:02.299Z,76.20
2023-01-15T11:11:02.604Z,74.77
2023-01-15T11:12:02.174Z,74.26
2023-01-15T11:13:02.185Z,75.08
2023-01-15T11:14:02.140Z,75.28
2023-01-15T11:15:02.218Z,74.57
2023-01-15T11:16:02.522Z,74.26
2023-01-15T11:17:02.593Z,73.95
2023-01-15T11:18:02.215Z,73.23
2023-01-15T11:19:02.703Z,75.45
2023-01-15T11:20:02.246Z,76.07
2023-01-15T11:21:02.212Z,75.73
2023-01-15T11:22:02.308Z,74.80
2023-01-15T11:23:01.717Z,73.88
2023-01-15T11:24:02.303Z,72.86
2023-01-15T11:25:01.980Z,72.03
2023-01-15T11:26:02.297Z,72.75
2023-01-15T11:27:02.694Z,72.34
2023-01-15T11:28:02.277Z,72.65
2023-01-15T11:29:02.166Z,73.13
2023-01-15T11:30:02.553Z,71.90
2023-01-15T11:31:02.326Z,71.22
2023-01-15T11:32:03.096Z,71.73
2023-01-15T11:33:03.066Z,72.75
2023-01-15T11:34:02.749Z,71.73
2023-01-15T11:35:02.672Z,71.42
2023-01-15T11:36:03.435Z,70.91
2023-01-15T11:37:02.136Z,71.32
2023-01-15T11:38:02.729Z,71.22
2023-01-15T11:39:02.333Z,71.73
2023-01-15T11:40:02.175Z,72.34
2023-01-15T11:41:02.576Z,71.83
2023-01-15T11:42:02.525Z,71.62
2023-01-15T11:43:01.861Z,72.03
2023-01-15T11:44:01.804Z,72.55
2023-01-15T11:45:01.712Z,72.14
2023-01-15T11:46:02.209Z,72.34
2023-01-15T11:47:01.903Z,70.70
2023-01-15T11:48:02.653Z,71.11
2023-01-15T11:49:02.337Z,71.73
2023-01-15T11:50:02.114Z,71.62
2023-01-15T11:51:02.661Z,72.14
2023-01-15T11:52:02.248Z,72.34
2023-01-15T11:53:02.722Z,71.39
2023-01-15T11:54:02.813Z,70.09
2023-01-15T11:55:02.404Z,70.60
2023-01-15T11:56:03.057Z,70.94
2023-01-15T11:57:02.974Z,70.73
2023-01-15T11:58:02.538Z,72.10
2023-01-15T11:59:02.384Z,72.82
2023-01-15T12:00:02.275Z,72.00
2023-01-15T12:01:02.455Z,71.39
2023-01-15T12:02:02.247Z,72.72
2023-01-15T12:03:02.993Z,73.13
2023-01-15T12:04:03.047Z,72.10
2023-01-15T12:05:03.130Z,72.10
2023-01-15T12:06:03.026Z,72.41
2023-01-15T12:07:03.179Z,73.33
2023-01-15T12:08:03.337Z,72.51
2023-01-15T12:09:03.027Z,72.20
2023-01-15T12:10:03.179Z,73.23
2023-01-15T12:11:17.236Z,71.80
2023-01-15T12:12:03.226Z,71.69
2023-01-15T12:13:03.182Z,72.78
2023-01-15T12:14:03.045Z,72.00
2023-01-15T12:15:03.437Z,70.67
2023-01-15T12:16:03.424Z,70.56
2023-01-15T12:17:03.496Z,72.10
2023-01-15T12:18:02.823Z,72.10
2023-01-15T12:19:02.465Z,71.39
2023-01-15T12:20:02.445Z,72.51
2023-01-15T12:21:02.381Z,72.51
2023-01-15T12:22:02.301Z,72.31
2023-01-15T12:23:02.888Z,71.69
2023-01-15T12:24:02.780Z,72.82
2023-01-15T12:25:03.288Z,72.51
2023-01-15T12:26:03.036Z,72.31
2023-01-15T12:27:02.940Z,71.42
2023-01-15T12:28:02.769Z,72.65
2023-01-15T12:29:02.948Z,72.75
2023-01-15T12:30:02.400Z,72.03
2023-01-15T12:31:02.429Z,71.11
2023-01-15T12:32:02.775Z,71.86
2023-01-15T12:33:02.541Z,72.99
2023-01-15T12:34:02.354Z,72.48
2023-01-15T12:35:02.328Z,72.27
2023-01-15T12:36:02.531Z,72.68
2023-01-15T12:37:02.799Z,72.27
2023-01-15T12:38:03.093Z,71.76
2023-01-15T12:39:02.713Z,71.97
2023-01-15T12:40:02.704Z,71.86
2023-01-15T12:41:02.628Z,72.68
2023-01-15T12:42:02.670Z,72.48
2023-01-15T12:43:03.251Z,72.99
2023-01-15T12:44:03.026Z,73.36
2023-01-15T12:45:02.981Z,73.98
2023-01-15T12:46:03.466Z,72.96
2023-01-15T12:47:03.203Z,72.96
2023-01-15T12:48:02.664Z,72.96
2023-01-15T12:49:02.450Z,72.96
2023-01-15T12:50:02.972Z,72.75
2023-01-15T12:51:02.867Z,72.24
2023-01-15T12:52:02.597Z,72.55
2023-01-15T12:53:03.004Z,72.34